Terminal Aerodrome Forecast
Issued by NWS

Home | Current Version | Previous Version | Text Only | Print | Product List | Glossary On
Versions: 1 2 3 4 5 6 7 8 9 10 11 12 13 14 15 16 17 18 19
440
FTUS42 KMLB 211721
TAFFPR
TAF
KFPR 211721Z 2118/2218 13014G20KT P6SM VCSH SCT025 BKN040 BKN080
      TEMPO 2118/2120 3SM SHRA BKN025
     FM212100 13010KT P6SM SCT025 BKN035 OVC050
     FM220000 11007KT P6SM VCSH SCT020 BKN040 OVC060
     FM221400 13011KT P6SM VCSH SCT025 BKN045 OVC070=

USA.gov is the U.S. government's official web portal to all federal, state and local government web resources and services.